createdAt,value
2022-12-04T00:01:11.885Z,101007.38
2022-12-04T00:03:38.279Z,100968.31
2022-12-04T00:06:07.219Z,101016.91
2022-12-04T00:08:34.206Z,101009.06
2022-12-04T00:11:00.906Z,100956.13
2022-12-04T00:13:27.373Z,100935.34
2022-12-04T00:15:54.050Z,100984.88
2022-12-04T00:18:20.513Z,100966.63
2022-12-04T00:20:46.868Z,101014.31
2022-12-04T00:23:13.520Z,100984.00
2022-12-04T00:25:41.550Z,100992.72
2022-12-04T00:28:08.489Z,100959.78
2022-12-04T00:30:34.833Z,101003.97
2022-12-04T00:33:01.137Z,100966.63
2022-12-04T00:35:27.539Z,100973.47
2022-12-04T00:37:53.959Z,100989.09
2022-12-04T00:40:20.290Z,100964.03
2022-12-04T00:42:46.611Z,100944.19
2022-12-04T00:45:12.959Z,100936.25
2022-12-04T00:47:39.276Z,100939.75
2022-12-04T00:50:06.325Z,100977.91
2022-12-04T00:52:32.649Z,100970.09
2022-12-04T00:54:59.017Z,100950.94
2022-12-04T00:57:25.353Z,100952.75
2022-12-04T00:59:51.891Z,100962.25
2022-12-04T01:02:18.344Z,100933.63
2022-12-04T01:04:44.648Z,100982.19
2022-12-04T01:07:10.997Z,100942.31
2022-12-04T01:09:37.459Z,100944.09
2022-12-04T01:12:03.916Z,100968.34
2022-12-04T01:14:30.587Z,100942.38
2022-12-04T01:16:57.062Z,100966.69
2022-12-04T01:19:23.568Z,100971.91
2022-12-04T01:21:49.988Z,100983.91
2022-12-04T01:24:16.460Z,100963.13
2022-12-04T01:26:42.787Z,100924.88
2022-12-04T01:29:09.104Z,100957.88
2022-12-04T01:31:36.063Z,100990.91
2022-12-04T01:34:02.679Z,100969.25
2022-12-04T01:36:29.406Z,100990.91
2022-12-04T01:38:56.605Z,100986.59
2022-12-04T01:41:26.057Z,100993.53
2022-12-04T01:44:18.341Z,100985.72
2022-12-04T01:47:02.784Z,100957.09
2022-12-04T01:49:40.111Z,100985.72
2022-12-04T01:52:11.313Z,100967.44
2022-12-04T01:54:42.378Z,100941.53
2022-12-04T01:57:20.118Z,100977.97
2022-12-04T01:59:53.976Z,100960.53
2022-12-04T02:02:30.173Z,100964.97
2022-12-04T02:04:56.919Z,100938.97
2022-12-04T02:07:23.544Z,100961.41
2022-12-04T02:09:55.879Z,100944.00
2022-12-04T02:12:36.578Z,100931.84
2022-12-04T02:15:30.697Z,100940.63
2022-12-04T02:18:10.279Z,100975.28
2022-12-04T02:21:01.216Z,100970.06
2022-12-04T02:24:03.108Z,100975.28
2022-12-04T02:26:40.705Z,100975.28
2022-12-04T02:29:23.230Z,100974.34
2022-12-04T02:32:09.871Z,100977.88
2022-12-04T02:34:47.328Z,100939.78
2022-12-04T02:37:29.458Z,100975.25
2022-12-04T02:40:09.620Z,100974.25
2022-12-04T02:42:43.398Z,100913.59
2022-12-04T02:45:14.711Z,100952.69
2022-12-04T02:47:44.168Z,100970.97
2022-12-04T02:50:14.447Z,100961.38
2022-12-04T02:52:52.268Z,100968.31
2022-12-04T02:55:28.842Z,100975.25
2022-12-04T02:58:01.345Z,100934.41
2022-12-04T03:00:30.263Z,100975.28
2022-12-04T03:03:02.568Z,100940.47
2022-12-04T03:05:38.847Z,100988.22
2022-12-04T03:08:11.137Z,100958.78
2022-12-04T03:10:49.361Z,100954.56
2022-12-04T03:13:18.333Z,100963.13
2022-12-04T03:15:59.669Z,100978.78
2022-12-04T03:18:37.654Z,100970.06
2022-12-04T03:21:08.930Z,100944.94
2022-12-04T03:23:44.284Z,100960.56
2022-12-04T03:26:31.665Z,100949.31
2022-12-04T03:29:20.846Z,100966.53
2022-12-04T03:32:00.768Z,100957.88
2022-12-04T03:35:10.987Z,100978.78
2022-12-04T03:37:59.796Z,100982.25
2022-12-04T03:40:36.403Z,100963.16
2022-12-04T03:43:13.396Z,100983.16
2022-12-04T03:45:48.219Z,100925.00
2022-12-04T03:48:23.473Z,100940.66
2022-12-04T03:51:13.138Z,100829.69
2022-12-04T03:53:44.359Z,100871.22
2022-12-04T03:56:18.843Z,100906.78
2022-12-04T03:58:53.714Z,100966.69
2022-12-04T04:01:23.257Z,100977.94
2022-12-04T04:03:53.430Z,100958.00
2022-12-04T04:06:27.973Z,100971.88
2022-12-04T04:08:58.155Z,100971.03
2022-12-04T04:11:32.716Z,100973.63
2022-12-04T04:14:23.984Z,100970.97
2022-12-04T04:17:16.046Z,100964.91
2022-12-04T04:20:03.956Z,100971.81
2022-12-04T04:22:54.488Z,100951.00
2022-12-04T04:25:25.962Z,100968.38
2022-12-04T04:27:53.886Z,100969.19
2022-12-04T04:30:20.760Z,100978.69
2022-12-04T04:33:01.836Z,100937.13
2022-12-04T04:35:41.879Z,100933.66
2022-12-04T04:38:37.690Z,100918.13
2022-12-04T04:41:22.791Z,100956.09
2022-12-04T04:44:04.083Z,100953.59
2022-12-04T04:46:37.988Z,100970.13
2022-12-04T04:49:08.774Z,100952.72
2022-12-04T04:51:35.531Z,100926.63
2022-12-04T04:54:06.860Z,100954.41
2022-12-04T04:56:40.404Z,100935.28
2022-12-04T04:59:06.845Z,100920.63
2022-12-04T05:01:33.400Z,100807.09
2022-12-04T05:03:59.728Z,100960.56
2022-12-04T05:06:26.044Z,100928.44
2022-12-04T05:08:52.349Z,100935.22
2022-12-04T05:11:18.765Z,100920.59
2022-12-04T05:13:45.143Z,100936.97
2022-12-04T05:16:14.525Z,100878.97
2022-12-04T05:19:01.827Z,100883.38
2022-12-04T05:21:28.204Z,100930.19
2022-12-04T05:23:54.559Z,100969.06
2022-12-04T05:26:20.941Z,100956.03
2022-12-04T05:28:47.342Z,100932.69
2022-12-04T05:31:13.928Z,100910.03
2022-12-04T05:33:40.318Z,100921.41
2022-12-04T05:36:09.423Z,100926.41
2022-12-04T05:38:36.619Z,100875.25
2022-12-04T05:41:05.193Z,100938.53
2022-12-04T05:43:32.334Z,100942.84
2022-12-04T05:46:04.006Z,100950.63
2022-12-04T05:48:30.942Z,100947.00
2022-12-04T05:50:57.259Z,100922.69
2022-12-04T05:53:23.751Z,100929.56
2022-12-04T05:56:00.627Z,100933.03
2022-12-04T05:58:27.823Z,100933.03
2022-12-04T06:00:54.613Z,100889.59
2022-12-04T06:03:21.463Z,100960.75
2022-12-04T06:05:47.987Z,100934.72
2022-12-04T06:08:14.663Z,100956.38
2022-12-04T06:10:41.052Z,100936.34
2022-12-04T06:13:08.059Z,100956.44
2022-12-04T06:15:43.184Z,100955.63
2022-12-04T06:18:09.616Z,100953.88
2022-12-04T06:20:36.013Z,100921.78
2022-12-04T06:23:02.678Z,100953.94
2022-12-04T06:25:29.039Z,100920.06
2022-12-04T06:27:55.569Z,100920.06
2022-12-04T06:30:22.064Z,100946.28
2022-12-04T06:32:48.392Z,100947.13
2022-12-04T06:35:14.784Z,100926.19
2022-12-04T06:37:41.134Z,100960.94
2022-12-04T06:40:08.170Z,100957.50
2022-12-04T06:42:34.522Z,100943.50
2022-12-04T06:45:00.820Z,100966.19
2022-12-04T06:47:27.125Z,100926.25
2022-12-04T06:49:53.593Z,100938.34
2022-12-04T06:52:20.229Z,100940.09
2022-12-04T06:54:46.540Z,100975.75
2022-12-04T06:57:12.845Z,100971.41
2022-12-04T06:59:39.250Z,100940.09
2022-12-04T07:02:05.607Z,100980.13
2022-12-04T07:04:32.007Z,100943.75
2022-12-04T07:06:58.401Z,100965.44
2022-12-04T07:09:24.715Z,100958.50
2022-12-04T07:11:51.031Z,100944.63
2022-12-04T07:14:17.342Z,100937.78
2022-12-04T07:16:43.868Z,100976.75
2022-12-04T07:19:13.026Z,100980.25
2022-12-04T07:21:39.488Z,100977.63
2022-12-04T07:24:06.156Z,100954.19
2022-12-04T07:26:32.500Z,100994.88
2022-12-04T07:28:59.435Z,100976.75
2022-12-04T07:31:28.069Z,100988.00
2022-12-04T07:33:55.243Z,100992.34
2022-12-04T07:36:22.956Z,100994.94
2022-12-04T07:38:50.327Z,100979.28
2022-12-04T07:41:17.455Z,100948.91
2022-12-04T07:43:44.306Z,101004.38
2022-12-04T07:46:12.849Z,101003.44
2022-12-04T07:48:39.765Z,100954.00
2022-12-04T07:51:11.182Z,101004.38
2022-12-04T07:53:38.102Z,101005.19
2022-12-04T07:56:06.054Z,101006.88
2022-12-04T07:58:33.416Z,100964.28
2022-12-04T08:01:13.614Z,100978.31
2022-12-04T08:03:47.180Z,101013.88
2022-12-04T08:06:15.398Z,100961.81
2022-12-04T08:08:41.918Z,100993.91
2022-12-04T08:11:11.069Z,101009.44
2022-12-04T08:13:37.637Z,100997.16
2022-12-04T08:16:05.374Z,100991.97
2022-12-04T08:18:32.063Z,100955.69
2022-12-04T08:21:13.778Z,101025.13
2022-12-04T08:23:41.751Z,101015.47
2022-12-04T08:26:09.094Z,101013.88
2022-12-04T08:28:36.249Z,101012.97
2022-12-04T08:31:14.702Z,100967.91
2022-12-04T08:33:42.623Z,100986.09
2022-12-04T08:36:12.263Z,101005.28
2022-12-04T08:38:39.268Z,101013.09
2022-12-04T08:41:07.917Z,101001.81
2022-12-04T08:43:34.799Z,101004.44
2022-12-04T08:46:03.247Z,100987.97
2022-12-04T08:48:30.215Z,101006.22
2022-12-04T08:50:56.568Z,100914.97
2022-12-04T08:53:23.478Z,100956.69
2022-12-04T08:55:50.494Z,100972.31
2022-12-04T08:58:17.194Z,101010.53
2022-12-04T09:00:43.726Z,100971.56
2022-12-04T09:03:15.051Z,100979.38
2022-12-04T09:05:42.548Z,100999.31
2022-12-04T09:08:09.012Z,100965.53
2022-12-04T09:10:36.641Z,100965.56
2022-12-04T09:13:03.673Z,100972.38
2022-12-04T09:15:30.475Z,100996.81
2022-12-04T09:17:57.049Z,100971.63
2022-12-04T09:20:23.390Z,100968.22
2022-12-04T09:23:03.595Z,101008.06
2022-12-04T09:25:31.659Z,101000.38
2022-12-04T09:27:58.011Z,100967.41
2022-12-04T09:30:24.321Z,100999.53
2022-12-04T09:32:50.667Z,100978.69
2022-12-04T09:35:17.100Z,101001.16
2022-12-04T09:37:43.400Z,100958.78
2022-12-04T09:40:25.186Z,100986.50
2022-12-04T09:43:20.997Z,101008.22
2022-12-04T09:45:53.438Z,100965.75
2022-12-04T09:48:22.178Z,101004.75
2022-12-04T09:50:50.325Z,100965.75
2022-12-04T09:53:24.564Z,100971.84
2022-12-04T09:56:09.959Z,101008.25
2022-12-04T09:58:44.655Z,100963.22
2022-12-04T10:01:35.133Z,100972.78
2022-12-04T10:04:06.108Z,100992.63
2022-12-04T10:06:45.515Z,101004.78
2022-12-04T10:09:22.024Z,100997.91
2022-12-04T10:12:27.126Z,101010.03
2022-12-04T10:15:11.947Z,101011.75
2022-12-04T10:17:41.302Z,101011.78
2022-12-04T10:20:38.818Z,101022.19
2022-12-04T10:23:19.343Z,101015.28
2022-12-04T10:25:46.453Z,100961.50
2022-12-04T10:28:37.691Z,101008.28
2022-12-04T10:31:06.032Z,101003.09
2022-12-04T10:33:39.586Z,101007.44
2022-12-04T10:36:06.301Z,100996.16
2022-12-04T10:38:47.788Z,100994.50
2022-12-04T10:41:22.410Z,100991.00
2022-12-04T10:43:50.070Z,100970.19
2022-12-04T10:46:20.644Z,100999.66
2022-12-04T10:48:50.752Z,100975.41
2022-12-04T10:51:19.703Z,100964.06
2022-12-04T10:53:49.220Z,100961.47
2022-12-04T10:56:21.721Z,100994.44
2022-12-04T10:58:59.783Z,100989.25
2022-12-04T11:01:28.442Z,101003.06
2022-12-04T11:04:05.690Z,101002.28
2022-12-04T11:06:32.410Z,100990.91
2022-12-04T11:08:59.656Z,100978.84
2022-12-04T11:11:32.534Z,100980.59
2022-12-04T11:14:12.699Z,100970.97
2022-12-04T11:16:44.786Z,100958.81
2022-12-04T11:19:37.790Z,100958.00
2022-12-04T11:22:22.349Z,100949.44
2022-12-04T11:24:57.845Z,100943.31
2022-12-04T11:27:34.120Z,100904.41
2022-12-04T11:30:10.488Z,100965.97
2022-12-04T11:32:38.517Z,100959.09
2022-12-04T11:35:25.964Z,100965.13
2022-12-04T11:38:06.787Z,100957.34
2022-12-04T11:40:34.155Z,100921.75
2022-12-04T11:43:14.389Z,100959.88
2022-12-04T11:45:41.399Z,100906.06
2022-12-04T11:48:18.138Z,100960.78
2022-12-04T11:50:54.052Z,100873.25
2022-12-04T11:53:39.632Z,100956.50
2022-12-04T11:56:13.199Z,100955.66
2022-12-04T11:59:07.611Z,100959.09
2022-12-04T12:01:57.760Z,100954.81
2022-12-04T12:04:42.969Z,100946.19
2022-12-04T12:07:18.666Z,100946.19
2022-12-04T12:09:53.256Z,100945.34
2022-12-04T12:12:35.516Z,100930.59
2022-12-04T12:15:24.774Z,100942.75
2022-12-04T12:18:20.955Z,100911.56
2022-12-04T12:21:18.939Z,100940.16
2022-12-04T12:23:57.448Z,100927.16
2022-12-04T12:26:33.586Z,100900.28
2022-12-04T12:29:14.522Z,100951.44
2022-12-04T12:32:10.876Z,100963.53
2022-12-04T12:34:43.157Z,100953.97
2022-12-04T12:37:35.913Z,100927.16
2022-12-04T12:40:10.472Z,100951.41
2022-12-04T12:42:57.964Z,100928.00
2022-12-04T12:45:38.865Z,100963.53
2022-12-04T12:48:18.526Z,100889.91
2022-12-04T12:51:08.850Z,100890.78
2022-12-04T12:53:43.280Z,100939.34
2022-12-04T12:56:13.192Z,100920.28
2022-12-04T12:58:48.875Z,100904.69
2022-12-04T13:01:42.259Z,100925.47
2022-12-04T13:04:29.131Z,100928.91
2022-12-04T13:07:24.991Z,100897.72
2022-12-04T13:10:07.136Z,100915.97
2022-12-04T13:12:47.379Z,100906.44
2022-12-04T13:15:20.588Z,100927.22
2022-12-04T13:17:49.569Z,100891.72
2022-12-04T13:20:25.489Z,100881.25
2022-12-04T13:23:06.409Z,100895.09
2022-12-04T13:25:47.981Z,100912.47
2022-12-04T13:28:17.211Z,100902.13
2022-12-04T13:31:09.194Z,100902.13
2022-12-04T13:33:57.381Z,100890.88
2022-12-04T13:36:53.091Z,100912.50
2022-12-04T13:40:26.923Z,100922.03
2022-12-04T13:42:53.602Z,100869.22
2022-12-04T13:45:33.391Z,100911.63
2022-12-04T13:48:01.897Z,100820.66
2022-12-04T13:50:34.735Z,100887.38
2022-12-04T13:53:01.376Z,100864.00
2022-12-04T13:55:33.151Z,100896.94
2022-12-04T13:58:01.274Z,100887.41
2022-12-04T14:00:30.344Z,100890.00
2022-12-04T14:03:00.187Z,100890.84
2022-12-04T14:05:30.132Z,100874.41
2022-12-04T14:08:18.587Z,100884.81
2022-12-04T14:10:56.810Z,100897.75
2022-12-04T14:13:28.112Z,100883.91
2022-12-04T14:16:08.061Z,100885.63
2022-12-04T14:18:34.517Z,100899.47
2022-12-04T14:21:04.774Z,100898.66
2022-12-04T14:23:42.428Z,100838.88
2022-12-04T14:26:37.357Z,100896.91
2022-12-04T14:29:41.726Z,100863.16
2022-12-04T14:32:13.789Z,100899.47
2022-12-04T14:34:40.560Z,100874.38
2022-12-04T14:37:07.119Z,100861.38
2022-12-04T14:39:43.380Z,100899.41
2022-12-04T14:42:16.039Z,100880.38
2022-12-04T14:44:44.828Z,100884.78
2022-12-04T14:47:25.958Z,100880.41
2022-12-04T14:50:12.230Z,100896.91
2022-12-04T14:53:26.119Z,100889.13
2022-12-04T14:56:07.794Z,100902.00
2022-12-04T14:58:38.356Z,100906.34
2022-12-04T15:01:16.321Z,100850.03
2022-12-04T15:03:44.974Z,100899.47
2022-12-04T15:06:26.352Z,100869.13
2022-12-04T15:09:16.956Z,100904.59
2022-12-04T15:12:35.264Z,100875.13
2022-12-04T15:15:05.126Z,100902.94
2022-12-04T15:17:31.428Z,100878.63
2022-12-04T15:20:11.564Z,100861.34
2022-12-04T15:22:38.225Z,100844.88
2022-12-04T15:25:06.128Z,100908.09
2022-12-04T15:27:33.227Z,100892.53
2022-12-04T15:30:01.563Z,100866.50
2022-12-04T15:32:30.257Z,100883.88
2022-12-04T15:35:09.175Z,100849.22
2022-12-04T15:37:36.068Z,100904.69
2022-12-04T15:40:06.867Z,100914.19
2022-12-04T15:42:33.609Z,100871.75
2022-12-04T15:45:10.121Z,100884.69
2022-12-04T15:47:42.552Z,100921.13
2022-12-04T15:50:17.955Z,100914.19
2022-12-04T15:53:10.521Z,100897.69
2022-12-04T15:55:47.477Z,100902.88
2022-12-04T15:58:22.355Z,100921.97
2022-12-04T16:00:56.577Z,100921.97
2022-12-04T16:03:37.999Z,100876.00
2022-12-04T16:06:13.501Z,100918.50
2022-12-04T16:08:42.203Z,100918.50
2022-12-04T16:11:28.302Z,100883.84
2022-12-04T16:14:12.845Z,100909.00
2022-12-04T16:16:42.296Z,100918.53
2022-12-04T16:19:30.262Z,100889.06
2022-12-04T16:21:57.846Z,100879.53
2022-12-04T16:24:25.418Z,100909.88
2022-12-04T16:26:55.253Z,100909.88
2022-12-04T16:29:23.214Z,100885.63
2022-12-04T16:31:50.307Z,100915.03
2022-12-04T16:34:16.934Z,100911.63
2022-12-04T16:36:43.339Z,100786.00
2022-12-04T16:39:09.667Z,100911.59
2022-12-04T16:41:36.659Z,100897.72
2022-12-04T16:44:03.186Z,100889.91
2022-12-04T16:46:30.010Z,100908.09
2022-12-04T16:48:56.970Z,100862.16
2022-12-04T16:51:26.585Z,100906.34
2022-12-04T16:53:54.276Z,100867.34
2022-12-04T16:56:20.714Z,100908.94
2022-12-04T16:58:47.157Z,100908.91
2022-12-04T17:01:35.076Z,100916.72
2022-12-04T17:04:01.547Z,100917.59
2022-12-04T17:06:27.932Z,100882.06
2022-12-04T17:08:54.436Z,100920.16
2022-12-04T17:11:20.795Z,100902.84
2022-12-04T17:13:47.154Z,100850.84
2022-12-04T17:16:15.179Z,100927.91
2022-12-04T17:18:44.370Z,100953.91
2022-12-04T17:21:12.877Z,100894.13
2022-12-04T17:23:40.368Z,100934.03
2022-12-04T17:26:09.315Z,100905.38
2022-12-04T17:28:39.007Z,100936.63
2022-12-04T17:31:14.261Z,100937.50
2022-12-04T17:33:40.894Z,100767.56
2022-12-04T17:36:12.755Z,100940.91
2022-12-04T17:38:40.815Z,100936.56
2022-12-04T17:41:08.850Z,100921.81
2022-12-04T17:43:35.513Z,100907.16
2022-12-04T17:46:07.743Z,100928.81
2022-12-04T17:48:34.043Z,100934.88
2022-12-04T17:51:26.340Z,100935.78
2022-12-04T17:53:52.815Z,100927.13
2022-12-04T17:56:21.389Z,100902.81
2022-12-04T17:58:48.827Z,100897.63
2022-12-04T18:01:25.015Z,100883.75
2022-12-04T18:03:57.149Z,100882.91
2022-12-04T18:06:28.158Z,100927.16
2022-12-04T18:08:55.376Z,100930.56
2022-12-04T18:11:25.047Z,100928.00
2022-12-04T18:14:12.011Z,100927.16
2022-12-04T18:16:42.504Z,100928.03
2022-12-04T18:19:08.999Z,100871.72
2022-12-04T18:21:35.364Z,100868.25
2022-12-04T18:24:03.569Z,100921.97
2022-12-04T18:26:38.845Z,100922.00
2022-12-04T18:29:06.134Z,100889.09
2022-12-04T18:31:33.462Z,100927.19
2022-12-04T18:34:00.305Z,100907.25
2022-12-04T18:36:29.355Z,100930.69
2022-12-04T18:39:00.737Z,100924.63
2022-12-04T18:41:28.473Z,100916.88
2022-12-04T18:43:55.166Z,100915.97
2022-12-04T18:46:22.214Z,100918.59
2022-12-04T18:48:50.890Z,100904.75
2022-12-04T18:51:30.717Z,100916.00
2022-12-04T18:53:59.919Z,100916.88
2022-12-04T18:56:26.626Z,100896.06
2022-12-04T18:59:00.608Z,100888.28
2022-12-04T19:01:27.968Z,100874.41
2022-12-04T19:03:59.814Z,100907.34
2022-12-04T19:06:28.154Z,100915.16
2022-12-04T19:08:54.619Z,100903.00
2022-12-04T19:11:21.137Z,100892.63
2022-12-04T19:13:47.442Z,100893.47
2022-12-04T19:16:16.144Z,100920.34
2022-12-04T19:18:45.065Z,100868.31
2022-12-04T19:21:11.547Z,100890.03
2022-12-04T19:23:37.878Z,100866.63
2022-12-04T19:26:04.292Z,100894.34
2022-12-04T19:28:30.887Z,100862.31
2022-12-04T19:30:57.387Z,100849.31
2022-12-04T19:33:24.763Z,100912.56
2022-12-04T19:35:58.270Z,100932.50
2022-12-04T19:38:25.239Z,100896.06
2022-12-04T19:41:22.365Z,100902.16
2022-12-04T19:43:50.932Z,100944.59
2022-12-04T19:46:19.697Z,100937.63
2022-12-04T19:48:47.258Z,100893.41
2022-12-04T19:51:17.282Z,100881.34
2022-12-04T19:53:44.837Z,100934.19
2022-12-04T19:56:16.659Z,100878.75
2022-12-04T19:58:43.111Z,100924.63
2022-12-04T20:01:16.181Z,100927.28
2022-12-04T20:03:43.343Z,100931.59
2022-12-04T20:06:21.540Z,100916.84
2022-12-04T20:08:54.077Z,100936.78
2022-12-04T20:11:20.453Z,100881.34
2022-12-04T20:13:48.820Z,100941.13
2022-12-04T20:16:17.985Z,100907.28
2022-12-04T20:18:45.325Z,100916.84
2022-12-04T20:21:12.861Z,100893.41
2022-12-04T20:23:40.978Z,100946.31
2022-12-04T20:26:10.668Z,100967.06
2022-12-04T20:28:37.227Z,100897.78
2022-12-04T20:31:14.469Z,100945.44
2022-12-04T20:33:41.123Z,100939.38
2022-12-04T20:36:09.099Z,100824.16
2022-12-04T20:38:36.474Z,100891.72
2022-12-04T20:41:04.442Z,100913.41
2022-12-04T20:43:30.849Z,100830.19
2022-12-04T20:45:57.601Z,100809.38
2022-12-04T20:48:24.313Z,100932.47
2022-12-04T20:50:50.761Z,100872.66
2022-12-04T20:53:17.193Z,100887.38
2022-12-04T20:55:52.679Z,100908.16
2022-12-04T20:58:18.998Z,100900.41
2022-12-04T21:00:45.295Z,100918.56
2022-12-04T21:03:11.641Z,100896.91
2022-12-04T21:05:38.015Z,100811.16
2022-12-04T21:08:04.493Z,100850.16
2022-12-04T21:10:32.358Z,100916.88
2022-12-04T21:13:17.391Z,100904.72
2022-12-04T21:16:01.577Z,100913.41
2022-12-04T21:18:27.991Z,100899.59
2022-12-04T21:20:54.293Z,100885.69
2022-12-04T21:23:20.647Z,100837.19
2022-12-04T21:25:47.057Z,100890.88
2022-12-04T21:28:13.500Z,100901.22
2022-12-04T21:30:39.911Z,100857.91
2022-12-04T21:33:06.220Z,100877.00
2022-12-04T21:35:32.519Z,100856.16
2022-12-04T21:37:58.941Z,100876.97
2022-12-04T21:40:25.313Z,100891.66
2022-12-04T21:42:51.740Z,100899.47
2022-12-04T21:45:18.109Z,100795.53
2022-12-04T21:47:45.030Z,100903.84
2022-12-04T21:50:11.457Z,100909.00
2022-12-04T21:52:37.818Z,100894.31
2022-12-04T21:55:05.068Z,100926.34
2022-12-04T21:57:31.465Z,100854.44
2022-12-04T21:59:58.217Z,100908.09
2022-12-04T22:02:24.847Z,100921.91
2022-12-04T22:04:51.332Z,100935.78
2022-12-04T22:07:17.847Z,100892.50
2022-12-04T22:09:44.445Z,100909.88
2022-12-04T22:12:26.761Z,100942.72
2022-12-04T22:14:57.166Z,100918.50
2022-12-04T22:17:23.480Z,100903.69
2022-12-04T22:19:49.834Z,100925.34
2022-12-04T22:22:16.232Z,100922.78
2022-12-04T22:24:42.611Z,100953.09
2022-12-04T22:27:14.699Z,100929.69
2022-12-04T22:29:50.385Z,100935.69
2022-12-04T22:32:17.836Z,100944.41
2022-12-04T22:34:44.145Z,100940.06
2022-12-04T22:37:10.460Z,100966.03
2022-12-04T22:39:36.889Z,100943.56
2022-12-04T22:42:03.382Z,100959.97
2022-12-04T22:44:29.709Z,100940.88
2022-12-04T22:46:56.060Z,100881.94
2022-12-04T22:49:22.505Z,100914.88
2022-12-04T22:51:48.851Z,100966.88
2022-12-04T22:54:15.220Z,100915.72
2022-12-04T22:56:43.438Z,100957.31
2022-12-04T22:59:09.890Z,100983.28
2022-12-04T23:01:36.295Z,100946.94
2022-12-04T23:04:03.622Z,100976.41
2022-12-04T23:06:32.034Z,100975.59
2022-12-04T23:09:04.769Z,100949.59
2022-12-04T23:11:31.144Z,100949.53
2022-12-04T23:14:00.459Z,100973.00
2022-12-04T23:16:28.868Z,100976.44
2022-12-04T23:18:56.054Z,100962.56
2022-12-04T23:21:23.982Z,100971.22
2022-12-04T23:23:52.168Z,100954.78
2022-12-04T23:26:21.444Z,100963.47
2022-12-04T23:28:48.104Z,100901.03
2022-12-04T23:31:15.057Z,100952.22
2022-12-04T23:33:42.362Z,100973.84
2022-12-04T23:36:11.213Z,100963.44
2022-12-04T23:38:39.622Z,100979.03
2022-12-04T23:41:13.837Z,100980.78
2022-12-04T23:43:41.102Z,100976.44
2022-12-04T23:46:11.342Z,100932.25
2022-12-04T23:48:39.368Z,100940.06
2022-12-04T23:51:06.376Z,100896.72
2022-12-04T23:53:33.097Z,100935.72
2022-12-04T23:56:10.268Z,100963.47
2022-12-04T23:58:37.381Z,100933.09
